sensor_id;sensor_type;location;lat;lon;timestamp;P1;durP1;ratioP1;P2;durP2;ratioP2
10687;SDS011;5392;42.688;23.298;2023-04-03T00:00:37;0.52;;;0.47;;
10687;SDS011;5392;42.688;23.298;2023-04-03T00:03:04;1.20;;;0.40;;
10687;SDS011;5392;42.688;23.298;2023-04-03T00:05:31;0.93;;;0.50;;
10687;SDS011;5392;42.688;23.298;2023-04-03T00:07:58;0.63;;;0.50;;
10687;SDS011;5392;42.688;23.298;2023-04-03T00:10:25;0.45;;;0.40;;
10687;SDS011;5392;42.688;23.298;2023-04-03T00:12:51;0.85;;;0.50;;
10687;SDS011;5392;42.688;23.298;2023-04-03T00:15:18;0.50;;;0.43;;
10687;SDS011;5392;42.688;23.298;2023-04-03T00:17:45;0.90;;;0.40;;
10687;SDS011;5392;42.688;23.298;2023-04-03T00:20:12;2.70;;;0.50;;
10687;SDS011;5392;42.688;23.298;2023-04-03T00:22:38;1.63;;;0.30;;
10687;SDS011;5392;42.688;23.298;2023-04-03T00:25:05;0.40;;;0.40;;
10687;SDS011;5392;42.688;23.298;2023-04-03T00:27:32;2.58;;;0.40;;
10687;SDS011;5392;42.688;23.298;2023-04-03T00:29:59;0.70;;;0.50;;
10687;SDS011;5392;42.688;23.298;2023-04-03T00:32:25;0.50;;;0.45;;
10687;SDS011;5392;42.688;23.298;2023-04-03T00:34:52;0.52;;;0.52;;
10687;SDS011;5392;42.688;23.298;2023-04-03T00:37:19;0.40;;;0.40;;
10687;SDS011;5392;42.688;23.298;2023-04-03T00:39:45;0.95;;;0.50;;
10687;SDS011;5392;42.688;23.298;2023-04-03T00:42:12;0.40;;;0.40;;
10687;SDS011;5392;42.688;23.298;2023-04-03T00:47:06;0.40;;;0.40;;
10687;SDS011;5392;42.688;23.298;2023-04-03T00:49:35;1.75;;;0.75;;
10687;SDS011;5392;42.688;23.298;2023-04-03T00:52:03;1.95;;;0.70;;
10687;SDS011;5392;42.688;23.298;2023-04-03T00:54:34;1.48;;;0.40;;
10687;SDS011;5392;42.688;23.298;2023-04-03T00:57:02;0.50;;;0.35;;
10687;SDS011;5392;42.688;23.298;2023-04-03T00:59:32;1.13;;;0.50;;
10687;SDS011;5392;42.688;23.298;2023-04-03T01:02:02;0.50;;;0.50;;
10687;SDS011;5392;42.688;23.298;2023-04-03T01:04:30;0.50;;;0.50;;
10687;SDS011;5392;42.688;23.298;2023-04-03T01:07:00;0.57;;;0.55;;
10687;SDS011;5392;42.688;23.298;2023-04-03T01:09:31;0.50;;;0.50;;
10687;SDS011;5392;42.688;23.298;2023-04-03T01:12:15;0.55;;;0.55;;
10687;SDS011;5392;42.688;23.298;2023-04-03T01:14:45;1.58;;;0.50;;
10687;SDS011;5392;42.688;23.298;2023-04-03T01:17:31;3.85;;;0.50;;
10687;SDS011;5392;42.688;23.298;2023-04-03T01:22:44;1.38;;;0.47;;
10687;SDS011;5392;42.688;23.298;2023-04-03T01:25:14;0.82;;;0.40;;
10687;SDS011;5392;42.688;23.298;2023-04-03T01:27:41;0.50;;;0.50;;
10687;SDS011;5392;42.688;23.298;2023-04-03T01:30:08;1.08;;;0.68;;
10687;SDS011;5392;42.688;23.298;2023-04-03T01:32:35;1.05;;;0.60;;
10687;SDS011;5392;42.688;23.298;2023-04-03T01:35:02;1.92;;;0.85;;
10687;SDS011;5392;42.688;23.298;2023-04-03T01:37:29;1.67;;;1.58;;
10687;SDS011;5392;42.688;23.298;2023-04-03T01:39:55;1.65;;;0.95;;
10687;SDS011;5392;42.688;23.298;2023-04-03T01:42:22;1.42;;;1.10;;
10687;SDS011;5392;42.688;23.298;2023-04-03T01:44:49;3.45;;;0.70;;
10687;SDS011;5392;42.688;23.298;2023-04-03T01:47:16;0.73;;;0.63;;
10687;SDS011;5392;42.688;23.298;2023-04-03T01:49:42;0.60;;;0.60;;
10687;SDS011;5392;42.688;23.298;2023-04-03T01:52:09;1.05;;;0.50;;
10687;SDS011;5392;42.688;23.298;2023-04-03T01:54:36;1.15;;;0.60;;
10687;SDS011;5392;42.688;23.298;2023-04-03T01:57:02;0.60;;;0.60;;
10687;SDS011;5392;42.688;23.298;2023-04-03T01:59:29;0.55;;;0.50;;
10687;SDS011;5392;42.688;23.298;2023-04-03T02:01:56;0.60;;;0.60;;
10687;SDS011;5392;42.688;23.298;2023-04-03T02:04:22;0.50;;;0.50;;
10687;SDS011;5392;42.688;23.298;2023-04-03T02:06:49;0.63;;;0.63;;
10687;SDS011;5392;42.688;23.298;2023-04-03T02:09:16;0.60;;;0.60;;
10687;SDS011;5392;42.688;23.298;2023-04-03T02:11:42;4.47;;;0.65;;
10687;SDS011;5392;42.688;23.298;2023-04-03T02:14:09;2.20;;;0.90;;
10687;SDS011;5392;42.688;23.298;2023-04-03T02:16:35;0.98;;;0.90;;
10687;SDS011;5392;42.688;23.298;2023-04-03T02:19:03;0.90;;;0.70;;
10687;SDS011;5392;42.688;23.298;2023-04-03T02:21:29;1.30;;;0.70;;
10687;SDS011;5392;42.688;23.298;2023-04-03T02:23:56;0.90;;;0.70;;
10687;SDS011;5392;42.688;23.298;2023-04-03T02:26:23;0.70;;;0.70;;
10687;SDS011;5392;42.688;23.298;2023-04-03T02:28:49;0.52;;;0.52;;
10687;SDS011;5392;42.688;23.298;2023-04-03T02:31:17;3.30;;;0.80;;
10687;SDS011;5392;42.688;23.298;2023-04-03T02:33:44;0.70;;;0.70;;
10687;SDS011;5392;42.688;23.298;2023-04-03T02:36:10;2.10;;;0.90;;
10687;SDS011;5392;42.688;23.298;2023-04-03T02:38:37;0.80;;;0.73;;
10687;SDS011;5392;42.688;23.298;2023-04-03T02:41:05;0.70;;;0.70;;
10687;SDS011;5392;42.688;23.298;2023-04-03T02:43:33;0.68;;;0.60;;
10687;SDS011;5392;42.688;23.298;2023-04-03T02:46:00;1.25;;;0.85;;
10687;SDS011;5392;42.688;23.298;2023-04-03T02:48:27;1.83;;;0.73;;
10687;SDS011;5392;42.688;23.298;2023-04-03T02:50:54;2.25;;;0.90;;
10687;SDS011;5392;42.688;23.298;2023-04-03T02:53:21;2.55;;;1.17;;
10687;SDS011;5392;42.688;23.298;2023-04-03T02:55:48;1.10;;;0.98;;
10687;SDS011;5392;42.688;23.298;2023-04-03T02:58:15;3.00;;;1.05;;
10687;SDS011;5392;42.688;23.298;2023-04-03T03:00:42;2.50;;;1.30;;
10687;SDS011;5392;42.688;23.298;2023-04-03T03:03:09;1.67;;;0.88;;
10687;SDS011;5392;42.688;23.298;2023-04-03T03:05:35;2.70;;;0.82;;
10687;SDS011;5392;42.688;23.298;2023-04-03T03:08:02;5.32;;;1.25;;
10687;SDS011;5392;42.688;23.298;2023-04-03T03:10:29;3.20;;;1.70;;
10687;SDS011;5392;42.688;23.298;2023-04-03T03:12:55;5.68;;;1.40;;
10687;SDS011;5392;42.688;23.298;2023-04-03T03:15:22;2.08;;;0.98;;
10687;SDS011;5392;42.688;23.298;2023-04-03T03:17:48;3.10;;;1.30;;
10687;SDS011;5392;42.688;23.298;2023-04-03T03:20:15;3.22;;;1.70;;
10687;SDS011;5392;42.688;23.298;2023-04-03T03:22:42;3.65;;;1.67;;
10687;SDS011;5392;42.688;23.298;2023-04-03T03:25:09;3.13;;;2.00;;
10687;SDS011;5392;42.688;23.298;2023-04-03T03:27:35;6.53;;;1.55;;
10687;SDS011;5392;42.688;23.298;2023-04-03T03:30:02;5.72;;;1.70;;
10687;SDS011;5392;42.688;23.298;2023-04-03T03:32:30;1.85;;;1.65;;
10687;SDS011;5392;42.688;23.298;2023-04-03T03:34:56;2.00;;;1.73;;
10687;SDS011;5392;42.688;23.298;2023-04-03T03:37:23;2.13;;;1.63;;
10687;SDS011;5392;42.688;23.298;2023-04-03T03:39:49;2.35;;;2.13;;
10687;SDS011;5392;42.688;23.298;2023-04-03T03:42:16;2.17;;;1.45;;
10687;SDS011;5392;42.688;23.298;2023-04-03T03:44:43;2.78;;;1.50;;
10687;SDS011;5392;42.688;23.298;2023-04-03T03:47:09;3.20;;;1.85;;
10687;SDS011;5392;42.688;23.298;2023-04-03T03:49:36;2.38;;;1.58;;
10687;SDS011;5392;42.688;23.298;2023-04-03T03:52:03;1.80;;;1.70;;
10687;SDS011;5392;42.688;23.298;2023-04-03T03:54:30;6.43;;;2.08;;
10687;SDS011;5392;42.688;23.298;2023-04-03T03:56:56;2.78;;;1.80;;
10687;SDS011;5392;42.688;23.298;2023-04-03T03:59:23;4.55;;;2.67;;
10687;SDS011;5392;42.688;23.298;2023-04-03T04:01:50;3.90;;;3.60;;
10687;SDS011;5392;42.688;23.298;2023-04-03T04:04:16;17.05;;;7.47;;
10687;SDS011;5392;42.688;23.298;2023-04-03T04:06:43;7.75;;;4.75;;
10687;SDS011;5392;42.688;23.298;2023-04-03T04:09:10;15.35;;;5.75;;
10687;SDS011;5392;42.688;23.298;2023-04-03T04:11:37;11.65;;;5.18;;
10687;SDS011;5392;42.688;23.298;2023-04-03T04:14:06;10.95;;;4.22;;
10687;SDS011;5392;42.688;23.298;2023-04-03T04:16:36;8.27;;;4.03;;
10687;SDS011;5392;42.688;23.298;2023-04-03T04:19:03;9.68;;;4.05;;
10687;SDS011;5392;42.688;23.298;2023-04-03T04:21:32;19.23;;;5.30;;
10687;SDS011;5392;42.688;23.298;2023-04-03T04:23:59;8.27;;;4.88;;
10687;SDS011;5392;42.688;23.298;2023-04-03T04:26:25;11.55;;;4.90;;
10687;SDS011;5392;42.688;23.298;2023-04-03T04:28:52;19.33;;;4.40;;
10687;SDS011;5392;42.688;23.298;2023-04-03T04:31:19;13.73;;;4.05;;
10687;SDS011;5392;42.688;23.298;2023-04-03T04:33:45;17.08;;;6.65;;
10687;SDS011;5392;42.688;23.298;2023-04-03T04:36:12;12.32;;;4.35;;
10687;SDS011;5392;42.688;23.298;2023-04-03T04:38:41;9.77;;;4.60;;
10687;SDS011;5392;42.688;23.298;2023-04-03T04:41:08;22.25;;;7.95;;
10687;SDS011;5392;42.688;23.298;2023-04-03T04:43:35;12.35;;;4.60;;
10687;SDS011;5392;42.688;23.298;2023-04-03T04:46:02;11.85;;;4.80;;
10687;SDS011;5392;42.688;23.298;2023-04-03T04:48:33;12.00;;;5.57;;
10687;SDS011;5392;42.688;23.298;2023-04-03T04:51:01;19.70;;;7.05;;
10687;SDS011;5392;42.688;23.298;2023-04-03T04:53:29;16.77;;;9.00;;
10687;SDS011;5392;42.688;23.298;2023-04-03T04:55:56;32.22;;;16.02;;
10687;SDS011;5392;42.688;23.298;2023-04-03T04:58:23;50.72;;;16.98;;
10687;SDS011;5392;42.688;23.298;2023-04-03T05:00:49;21.13;;;11.90;;
10687;SDS011;5392;42.688;23.298;2023-04-03T05:03:16;18.83;;;10.73;;
10687;SDS011;5392;42.688;23.298;2023-04-03T05:05:42;15.68;;;11.15;;
10687;SDS011;5392;42.688;23.298;2023-04-03T05:08:09;18.30;;;10.88;;
10687;SDS011;5392;42.688;23.298;2023-04-03T05:10:36;18.67;;;12.55;;
10687;SDS011;5392;42.688;23.298;2023-04-03T05:13:03;33.78;;;14.90;;
10687;SDS011;5392;42.688;23.298;2023-04-03T05:15:30;31.10;;;16.52;;
10687;SDS011;5392;42.688;23.298;2023-04-03T05:17:56;44.50;;;18.33;;
10687;SDS011;5392;42.688;23.298;2023-04-03T05:20:23;47.40;;;16.90;;
10687;SDS011;5392;42.688;23.298;2023-04-03T05:22:49;39.55;;;16.88;;
10687;SDS011;5392;42.688;23.298;2023-04-03T05:25:16;37.70;;;16.10;;
10687;SDS011;5392;42.688;23.298;2023-04-03T05:27:42;32.45;;;15.95;;
10687;SDS011;5392;42.688;23.298;2023-04-03T05:30:09;25.92;;;12.82;;
10687;SDS011;5392;42.688;23.298;2023-04-03T05:32:36;26.05;;;13.30;;
10687;SDS011;5392;42.688;23.298;2023-04-03T05:35:04;24.35;;;10.15;;
10687;SDS011;5392;42.688;23.298;2023-04-03T05:37:32;30.58;;;12.70;;
10687;SDS011;5392;42.688;23.298;2023-04-03T05:39:59;25.23;;;8.13;;
10687;SDS011;5392;42.688;23.298;2023-04-03T05:42:26;20.00;;;9.73;;
10687;SDS011;5392;42.688;23.298;2023-04-03T05:44:53;22.98;;;9.65;;
10687;SDS011;5392;42.688;23.298;2023-04-03T05:47:19;14.82;;;5.55;;
10687;SDS011;5392;42.688;23.298;2023-04-03T05:49:46;10.43;;;4.53;;
10687;SDS011;5392;42.688;23.298;2023-04-03T05:52:23;17.23;;;5.90;;
10687;SDS011;5392;42.688;23.298;2023-04-03T05:54:53;6.90;;;3.70;;
10687;SDS011;5392;42.688;23.298;2023-04-03T05:57:20;13.55;;;5.38;;
10687;SDS011;5392;42.688;23.298;2023-04-03T05:59:47;15.25;;;5.38;;
10687;SDS011;5392;42.688;23.298;2023-04-03T06:02:15;21.45;;;5.82;;
10687;SDS011;5392;42.688;23.298;2023-04-03T06:04:44;12.85;;;5.10;;
10687;SDS011;5392;42.688;23.298;2023-04-03T06:07:14;26.45;;;7.63;;
10687;SDS011;5392;42.688;23.298;2023-04-03T06:09:43;21.83;;;7.95;;
10687;SDS011;5392;42.688;23.298;2023-04-03T06:12:10;19.13;;;6.88;;
10687;SDS011;5392;42.688;23.298;2023-04-03T06:14:37;15.98;;;6.95;;
10687;SDS011;5392;42.688;23.298;2023-04-03T06:17:04;19.85;;;8.05;;
10687;SDS011;5392;42.688;23.298;2023-04-03T06:19:32;16.55;;;6.15;;
10687;SDS011;5392;42.688;23.298;2023-04-03T06:21:59;14.60;;;6.10;;
10687;SDS011;5392;42.688;23.298;2023-04-03T06:24:26;16.42;;;6.70;;
10687;SDS011;5392;42.688;23.298;2023-04-03T06:26:53;19.50;;;7.10;;
10687;SDS011;5392;42.688;23.298;2023-04-03T06:29:20;18.42;;;6.60;;
10687;SDS011;5392;42.688;23.298;2023-04-03T06:31:47;13.93;;;6.25;;
10687;SDS011;5392;42.688;23.298;2023-04-03T06:34:14;17.23;;;6.03;;
10687;SDS011;5392;42.688;23.298;2023-04-03T06:36:42;11.93;;;5.57;;
10687;SDS011;5392;42.688;23.298;2023-04-03T06:39:16;8.27;;;5.43;;
10687;SDS011;5392;42.688;23.298;2023-04-03T06:41:44;12.10;;;4.78;;
10687;SDS011;5392;42.688;23.298;2023-04-03T06:44:11;14.82;;;5.57;;
10687;SDS011;5392;42.688;23.298;2023-04-03T06:46:39;12.18;;;5.97;;
10687;SDS011;5392;42.688;23.298;2023-04-03T06:49:06;11.35;;;5.38;;
10687;SDS011;5392;42.688;23.298;2023-04-03T06:51:37;9.30;;;5.35;;
10687;SDS011;5392;42.688;23.298;2023-04-03T06:54:04;12.23;;;5.22;;
10687;SDS011;5392;42.688;23.298;2023-04-03T06:56:32;15.27;;;6.20;;
10687;SDS011;5392;42.688;23.298;2023-04-03T06:58:59;14.63;;;4.68;;
10687;SDS011;5392;42.688;23.298;2023-04-03T07:01:26;17.35;;;5.57;;
10687;SDS011;5392;42.688;23.298;2023-04-03T07:03:55;20.20;;;6.35;;
10687;SDS011;5392;42.688;23.298;2023-04-03T07:06:22;14.95;;;5.30;;
10687;SDS011;5392;42.688;23.298;2023-04-03T07:08:48;11.00;;;5.07;;
10687;SDS011;5392;42.688;23.298;2023-04-03T07:11:15;12.57;;;5.65;;
10687;SDS011;5392;42.688;23.298;2023-04-03T07:13:42;13.50;;;7.65;;
10687;SDS011;5392;42.688;23.298;2023-04-03T07:16:09;11.20;;;5.55;;
10687;SDS011;5392;42.688;23.298;2023-04-03T07:18:37;7.88;;;2.63;;
10687;SDS011;5392;42.688;23.298;2023-04-03T07:21:03;5.13;;;3.40;;
10687;SDS011;5392;42.688;23.298;2023-04-03T07:23:30;7.30;;;3.70;;
10687;SDS011;5392;42.688;23.298;2023-04-03T07:25:57;6.50;;;3.72;;
10687;SDS011;5392;42.688;23.298;2023-04-03T07:28:24;7.32;;;3.95;;
10687;SDS011;5392;42.688;23.298;2023-04-03T07:30:53;5.72;;;3.10;;
10687;SDS011;5392;42.688;23.298;2023-04-03T07:33:30;8.13;;;2.30;;
10687;SDS011;5392;42.688;23.298;2023-04-03T07:35:57;3.70;;;1.40;;
10687;SDS011;5392;42.688;23.298;2023-04-03T07:38:24;2.95;;;2.05;;
10687;SDS011;5392;42.688;23.298;2023-04-03T07:40:51;5.13;;;4.57;;
10687;SDS011;5392;42.688;23.298;2023-04-03T07:43:19;10.32;;;6.00;;
10687;SDS011;5392;42.688;23.298;2023-04-03T07:45:47;7.65;;;6.75;;
10687;SDS011;5392;42.688;23.298;2023-04-03T07:48:17;8.52;;;6.90;;
10687;SDS011;5392;42.688;23.298;2023-04-03T07:50:45;9.18;;;5.07;;
10687;SDS011;5392;42.688;23.298;2023-04-03T07:53:13;10.18;;;5.78;;
10687;SDS011;5392;42.688;23.298;2023-04-03T07:55:40;9.38;;;6.35;;
10687;SDS011;5392;42.688;23.298;2023-04-03T07:58:14;16.15;;;6.63;;
10687;SDS011;5392;42.688;23.298;2023-04-03T08:00:43;13.15;;;7.82;;
10687;SDS011;5392;42.688;23.298;2023-04-03T08:03:11;11.13;;;7.00;;
10687;SDS011;5392;42.688;23.298;2023-04-03T08:05:40;11.35;;;7.70;;
10687;SDS011;5392;42.688;23.298;2023-04-03T08:08:08;14.30;;;7.13;;
10687;SDS011;5392;42.688;23.298;2023-04-03T08:10:37;15.65;;;7.95;;
10687;SDS011;5392;42.688;23.298;2023-04-03T08:13:04;13.60;;;7.95;;
10687;SDS011;5392;42.688;23.298;2023-04-03T08:15:31;10.85;;;6.90;;
10687;SDS011;5392;42.688;23.298;2023-04-03T08:17:58;13.45;;;7.47;;
10687;SDS011;5392;42.688;23.298;2023-04-03T08:20:27;11.25;;;6.95;;
10687;SDS011;5392;42.688;23.298;2023-04-03T08:22:54;13.98;;;7.80;;
10687;SDS011;5392;42.688;23.298;2023-04-03T08:25:21;11.63;;;7.45;;
10687;SDS011;5392;42.688;23.298;2023-04-03T08:27:48;10.73;;;7.43;;
10687;SDS011;5392;42.688;23.298;2023-04-03T08:30:14;14.68;;;8.18;;
10687;SDS011;5392;42.688;23.298;2023-04-03T08:32:41;18.00;;;7.40;;
10687;SDS011;5392;42.688;23.298;2023-04-03T08:35:09;12.32;;;7.60;;
10687;SDS011;5392;42.688;23.298;2023-04-03T08:37:37;17.40;;;8.10;;
10687;SDS011;5392;42.688;23.298;2023-04-03T08:40:05;15.98;;;7.05;;
10687;SDS011;5392;42.688;23.298;2023-04-03T08:45:33;13.40;;;6.20;;
10687;SDS011;5392;42.688;23.298;2023-04-03T08:50:46;11.18;;;7.90;;
10687;SDS011;5392;42.688;23.298;2023-04-03T08:53:19;11.45;;;7.80;;
10687;SDS011;5392;42.688;23.298;2023-04-03T08:55:49;15.88;;;7.45;;
10687;SDS011;5392;42.688;23.298;2023-04-03T08:58:18;8.63;;;6.35;;
10687;SDS011;5392;42.688;23.298;2023-04-03T09:01:05;13.40;;;8.90;;
10687;SDS011;5392;42.688;23.298;2023-04-03T09:03:45;15.93;;;9.73;;
10687;SDS011;5392;42.688;23.298;2023-04-03T09:06:22;17.30;;;9.93;;
10687;SDS011;5392;42.688;23.298;2023-04-03T09:11:54;15.85;;;10.75;;
10687;SDS011;5392;42.688;23.298;2023-04-03T09:14:44;16.83;;;11.20;;
10687;SDS011;5392;42.688;23.298;2023-04-03T09:26:09;9.38;;;8.35;;
10687;SDS011;5392;42.688;23.298;2023-04-03T09:28:42;14.48;;;7.93;;
10687;SDS011;5392;42.688;23.298;2023-04-03T09:31:26;12.77;;;9.68;;
10687;SDS011;5392;42.688;23.298;2023-04-03T09:33:59;10.13;;;6.63;;
10687;SDS011;5392;42.688;23.298;2023-04-03T09:36:39;9.35;;;6.05;;
10687;SDS011;5392;42.688;23.298;2023-04-03T09:39:18;11.05;;;6.60;;
10687;SDS011;5392;42.688;23.298;2023-04-03T09:41:57;11.00;;;7.47;;
10687;SDS011;5392;42.688;23.298;2023-04-03T09:44:32;8.90;;;5.90;;
10687;SDS011;5392;42.688;23.298;2023-04-03T09:47:35;6.65;;;5.57;;
10687;SDS011;5392;42.688;23.298;2023-04-03T09:52:41;10.02;;;6.07;;
10687;SDS011;5392;42.688;23.298;2023-04-03T09:58:00;8.43;;;5.97;;
10687;SDS011;5392;42.688;23.298;2023-04-03T10:00:33;12.52;;;6.80;;
10687;SDS011;5392;42.688;23.298;2023-04-03T10:03:03;10.18;;;5.55;;
10687;SDS011;5392;42.688;23.298;2023-04-03T10:08:21;11.38;;;6.70;;
10687;SDS011;5392;42.688;23.298;2023-04-03T10:13:49;7.75;;;6.68;;
10687;SDS011;5392;42.688;23.298;2023-04-03T10:16:24;7.97;;;5.28;;
10687;SDS011;5392;42.688;23.298;2023-04-03T10:22:41;4.60;;;4.18;;
10687;SDS011;5392;42.688;23.298;2023-04-03T10:28:53;5.28;;;2.45;;
10687;SDS011;5392;42.688;23.298;2023-04-03T10:31:46;5.10;;;3.03;;
10687;SDS011;5392;42.688;23.298;2023-04-03T10:34:32;7.13;;;3.25;;
10687;SDS011;5392;42.688;23.298;2023-04-03T10:57:56;4.72;;;2.17;;
10687;SDS011;5392;42.688;23.298;2023-04-03T11:00:30;3.10;;;1.20;;
10687;SDS011;5392;42.688;23.298;2023-04-03T11:06:11;2.38;;;1.10;;
10687;SDS011;5392;42.688;23.298;2023-04-03T11:11:31;1.75;;;0.80;;
10687;SDS011;5392;42.688;23.298;2023-04-03T11:22:30;0.82;;;0.70;;
10687;SDS011;5392;42.688;23.298;2023-04-03T11:35:42;0.63;;;0.50;;
10687;SDS011;5392;42.688;23.298;2023-04-03T11:38:17;1.10;;;0.57;;
10687;SDS011;5392;42.688;23.298;2023-04-03T11:40:52;0.68;;;0.57;;
10687;SDS011;5392;42.688;23.298;2023-04-03T11:43:27;1.48;;;0.90;;
10687;SDS011;5392;42.688;23.298;2023-04-03T11:45:57;0.60;;;0.60;;
10687;SDS011;5392;42.688;23.298;2023-04-03T11:50:58;1.30;;;0.40;;
10687;SDS011;5392;42.688;23.298;2023-04-03T11:53:31;0.50;;;0.50;;
10687;SDS011;5392;42.688;23.298;2023-04-03T11:58:34;1.85;;;0.60;;
10687;SDS011;5392;42.688;23.298;2023-04-03T12:03:29;1.13;;;0.47;;
10687;SDS011;5392;42.688;23.298;2023-04-03T12:11:14;1.38;;;0.57;;
10687;SDS011;5392;42.688;23.298;2023-04-03T12:31:55;0.65;;;0.50;;
10687;SDS011;5392;42.688;23.298;2023-04-03T12:34:38;0.68;;;0.68;;
10687;SDS011;5392;42.688;23.298;2023-04-03T12:45:43;6.40;;;0.47;;
10687;SDS011;5392;42.688;23.298;2023-04-03T12:48:15;1.95;;;0.70;;
10687;SDS011;5392;42.688;23.298;2023-04-03T12:50:45;1.45;;;1.00;;
10687;SDS011;5392;42.688;23.298;2023-04-03T12:53:14;2.05;;;1.55;;
10687;SDS011;5392;42.688;23.298;2023-04-03T12:55:45;1.30;;;1.10;;
10687;SDS011;5392;42.688;23.298;2023-04-03T13:00:43;1.63;;;1.08;;
10687;SDS011;5392;42.688;23.298;2023-04-03T13:03:21;1.30;;;1.15;;
10687;SDS011;5392;42.688;23.298;2023-04-03T13:05:50;1.55;;;1.13;;
10687;SDS011;5392;42.688;23.298;2023-04-03T13:08:17;2.08;;;1.95;;
10687;SDS011;5392;42.688;23.298;2023-04-03T13:10:49;1.80;;;1.70;;
10687;SDS011;5392;42.688;23.298;2023-04-03T13:13:26;2.20;;;2.08;;
10687;SDS011;5392;42.688;23.298;2023-04-03T13:15:53;2.08;;;1.98;;
10687;SDS011;5392;42.688;23.298;2023-04-03T13:18:28;2.95;;;2.75;;
10687;SDS011;5392;42.688;23.298;2023-04-03T13:21:03;5.78;;;3.10;;
10687;SDS011;5392;42.688;23.298;2023-04-03T13:23:51;4.65;;;4.22;;
10687;SDS011;5392;42.688;23.298;2023-04-03T13:26:39;4.10;;;3.78;;
10687;SDS011;5392;42.688;23.298;2023-04-03T13:29:07;3.10;;;2.90;;
10687;SDS011;5392;42.688;23.298;2023-04-03T13:31:56;4.13;;;3.85;;
10687;SDS011;5392;42.688;23.298;2023-04-03T13:34:24;5.18;;;4.72;;
10687;SDS011;5392;42.688;23.298;2023-04-03T13:39:31;5.78;;;5.47;;
10687;SDS011;5392;42.688;23.298;2023-04-03T13:42:01;2.38;;;2.28;;
10687;SDS011;5392;42.688;23.298;2023-04-03T13:44:49;3.90;;;3.70;;
10687;SDS011;5392;42.688;23.298;2023-04-03T13:47:46;4.22;;;3.88;;
10687;SDS011;5392;42.688;23.298;2023-04-03T13:50:22;4.45;;;4.15;;
10687;SDS011;5392;42.688;23.298;2023-04-03T13:52:52;3.97;;;3.83;;
10687;SDS011;5392;42.688;23.298;2023-04-03T13:55:23;4.72;;;4.35;;
10687;SDS011;5392;42.688;23.298;2023-04-03T13:57:56;6.22;;;5.72;;
10687;SDS011;5392;42.688;23.298;2023-04-03T14:00:50;5.15;;;4.68;;
10687;SDS011;5392;42.688;23.298;2023-04-03T14:03:24;5.47;;;5.00;;
10687;SDS011;5392;42.688;23.298;2023-04-03T14:05:51;5.78;;;5.30;;
10687;SDS011;5392;42.688;23.298;2023-04-03T14:08:19;5.82;;;5.30;;
10687;SDS011;5392;42.688;23.298;2023-04-03T14:11:01;4.75;;;4.35;;
10687;SDS011;5392;42.688;23.298;2023-04-03T14:13:31;6.35;;;5.85;;
10687;SDS011;5392;42.688;23.298;2023-04-03T14:15:58;6.40;;;5.97;;
10687;SDS011;5392;42.688;23.298;2023-04-03T14:18:40;5.72;;;5.30;;
10687;SDS011;5392;42.688;23.298;2023-04-03T14:21:07;6.75;;;6.35;;
10687;SDS011;5392;42.688;23.298;2023-04-03T14:23:33;7.40;;;6.97;;
10687;SDS011;5392;42.688;23.298;2023-04-03T14:26:01;8.07;;;7.38;;
10687;SDS011;5392;42.688;23.298;2023-04-03T14:28:28;7.63;;;7.03;;
10687;SDS011;5392;42.688;23.298;2023-04-03T14:30:55;8.80;;;8.10;;
10687;SDS011;5392;42.688;23.298;2023-04-03T14:33:21;7.25;;;6.55;;
10687;SDS011;5392;42.688;23.298;2023-04-03T14:35:48;7.75;;;7.25;;
10687;SDS011;5392;42.688;23.298;2023-04-03T14:38:25;8.38;;;7.68;;
10687;SDS011;5392;42.688;23.298;2023-04-03T14:40:54;6.68;;;6.28;;
10687;SDS011;5392;42.688;23.298;2023-04-03T14:43:31;6.40;;;6.00;;
10687;SDS011;5392;42.688;23.298;2023-04-03T14:45:58;6.47;;;6.18;;
10687;SDS011;5392;42.688;23.298;2023-04-03T14:48:25;4.50;;;4.32;;
10687;SDS011;5392;42.688;23.298;2023-04-03T14:50:54;6.18;;;5.28;;
10687;SDS011;5392;42.688;23.298;2023-04-03T14:53:31;5.40;;;5.00;;
10687;SDS011;5392;42.688;23.298;2023-04-03T14:56:14;5.95;;;5.65;;
10687;SDS011;5392;42.688;23.298;2023-04-03T14:58:44;6.10;;;5.70;;
10687;SDS011;5392;42.688;23.298;2023-04-03T15:01:15;5.75;;;5.18;;
10687;SDS011;5392;42.688;23.298;2023-04-03T15:03:44;4.43;;;4.22;;
10687;SDS011;5392;42.688;23.298;2023-04-03T15:06:11;4.65;;;4.35;;
10687;SDS011;5392;42.688;23.298;2023-04-03T15:08:39;6.00;;;5.55;;
10687;SDS011;5392;42.688;23.298;2023-04-03T15:11:08;8.13;;;7.57;;
10687;SDS011;5392;42.688;23.298;2023-04-03T15:13:37;5.60;;;5.38;;
10687;SDS011;5392;42.688;23.298;2023-04-03T15:16:17;7.20;;;6.70;;
10687;SDS011;5392;42.688;23.298;2023-04-03T15:18:45;6.78;;;6.38;;
10687;SDS011;5392;42.688;23.298;2023-04-03T15:21:13;6.35;;;6.03;;
10687;SDS011;5392;42.688;23.298;2023-04-03T15:23:40;3.03;;;2.92;;
10687;SDS011;5392;42.688;23.298;2023-04-03T15:26:08;2.03;;;1.88;;
10687;SDS011;5392;42.688;23.298;2023-04-03T15:28:39;3.42;;;3.17;;
10687;SDS011;5392;42.688;23.298;2023-04-03T15:31:08;2.72;;;2.63;;
10687;SDS011;5392;42.688;23.298;2023-04-03T15:33:35;2.15;;;2.05;;
10687;SDS011;5392;42.688;23.298;2023-04-03T15:36:02;2.45;;;2.35;;
10687;SDS011;5392;42.688;23.298;2023-04-03T15:38:33;1.75;;;1.65;;
10687;SDS011;5392;42.688;23.298;2023-04-03T15:41:00;1.88;;;1.77;;
10687;SDS011;5392;42.688;23.298;2023-04-03T15:43:27;1.88;;;1.77;;
10687;SDS011;5392;42.688;23.298;2023-04-03T15:45:55;1.75;;;1.65;;
10687;SDS011;5392;42.688;23.298;2023-04-03T15:48:25;2.97;;;2.70;;
10687;SDS011;5392;42.688;23.298;2023-04-03T15:50:53;3.72;;;2.40;;
10687;SDS011;5392;42.688;23.298;2023-04-03T15:53:22;1.52;;;1.45;;
10687;SDS011;5392;42.688;23.298;2023-04-03T15:55:48;1.95;;;1.85;;
10687;SDS011;5392;42.688;23.298;2023-04-03T15:58:15;2.72;;;2.55;;
10687;SDS011;5392;42.688;23.298;2023-04-03T16:00:42;1.75;;;1.20;;
10687;SDS011;5392;42.688;23.298;2023-04-03T16:03:10;1.48;;;1.45;;
10687;SDS011;5392;42.688;23.298;2023-04-03T16:05:41;2.65;;;1.73;;
10687;SDS011;5392;42.688;23.298;2023-04-03T16:08:08;1.27;;;1.27;;
10687;SDS011;5392;42.688;23.298;2023-04-03T16:10:35;2.50;;;1.90;;
10687;SDS011;5392;42.688;23.298;2023-04-03T16:13:03;2.58;;;2.47;;
10687;SDS011;5392;42.688;23.298;2023-04-03T16:15:30;3.00;;;2.70;;
10687;SDS011;5392;42.688;23.298;2023-04-03T16:18:01;4.55;;;2.80;;
10687;SDS011;5392;42.688;23.298;2023-04-03T16:20:28;1.77;;;1.55;;
10687;SDS011;5392;42.688;23.298;2023-04-03T16:22:56;2.78;;;2.05;;
10687;SDS011;5392;42.688;23.298;2023-04-03T16:25:25;3.97;;;3.67;;
10687;SDS011;5392;42.688;23.298;2023-04-03T16:27:52;2.65;;;2.45;;
10687;SDS011;5392;42.688;23.298;2023-04-03T16:30:19;4.05;;;3.85;;
10687;SDS011;5392;42.688;23.298;2023-04-03T16:32:46;4.47;;;4.28;;
10687;SDS011;5392;42.688;23.298;2023-04-03T16:35:13;5.18;;;4.82;;
10687;SDS011;5392;42.688;23.298;2023-04-03T16:37:40;4.65;;;4.40;;
10687;SDS011;5392;42.688;23.298;2023-04-03T16:40:07;4.15;;;3.95;;
10687;SDS011;5392;42.688;23.298;2023-04-03T16:42:34;4.10;;;3.75;;
10687;SDS011;5392;42.688;23.298;2023-04-03T16:45:03;3.95;;;3.65;;
10687;SDS011;5392;42.688;23.298;2023-04-03T16:47:32;4.35;;;4.13;;
10687;SDS011;5392;42.688;23.298;2023-04-03T16:49:59;5.10;;;4.75;;
10687;SDS011;5392;42.688;23.298;2023-04-03T16:52:26;4.78;;;4.57;;
10687;SDS011;5392;42.688;23.298;2023-04-03T16:54:53;4.60;;;4.40;;
10687;SDS011;5392;42.688;23.298;2023-04-03T16:57:22;4.78;;;4.57;;
10687;SDS011;5392;42.688;23.298;2023-04-03T16:59:51;4.65;;;4.45;;
10687;SDS011;5392;42.688;23.298;2023-04-03T17:02:18;5.72;;;5.43;;
10687;SDS011;5392;42.688;23.298;2023-04-03T17:04:46;6.05;;;5.75;;
10687;SDS011;5392;42.688;23.298;2023-04-03T17:07:14;5.38;;;4.97;;